sensor_id;sensor_type;location;lat;lon;timestamp;pressure;altitude;pressure_sealevel;temperature;humidity
62725;BME280;49026;52.600;4.694;2023-12-20T00:01:29;101501.53;;;6.75;100.00
62725;BME280;49026;52.600;4.694;2023-12-20T00:03:55;101511.94;;;6.78;99.91
62725;BME280;49026;52.600;4.694;2023-12-20T00:06:23;101519.78;;;6.76;98.83
62725;BME280;49026;52.600;4.694;2023-12-20T00:08:48;101508.53;;;6.73;98.89
62725;BME280;49026;52.600;4.694;2023-12-20T00:11:13;101505.16;;;6.64;99.19
62725;BME280;49026;52.600;4.694;2023-12-20T00:13:38;101500.88;;;6.60;98.67
62725;BME280;49026;52.600;4.694;2023-12-20T00:16:06;101511.31;;;6.60;99.53
62725;BME280;49026;52.600;4.694;2023-12-20T00:18:31;101511.28;;;6.62;99.66
62725;BME280;49026;52.600;4.694;2023-12-20T00:20:57;101511.25;;;6.65;99.75
62725;BME280;49026;52.600;4.694;2023-12-20T00:23:22;101513.81;;;6.66;99.50
62725;BME280;49026;52.600;4.694;2023-12-20T00:25:50;101521.63;;;6.70;99.33
62725;BME280;49026;52.600;4.694;2023-12-20T00:28:16;101523.31;;;6.75;99.39
62725;BME280;49026;52.600;4.694;2023-12-20T00:30:41;101514.50;;;6.82;98.82
62725;BME280;49026;52.600;4.694;2023-12-20T00:33:08;101513.50;;;6.90;98.28
62725;BME280;49026;52.600;4.694;2023-12-20T00:35:34;101503.94;;;6.92;98.07
62725;BME280;49026;52.600;4.694;2023-12-20T00:37:59;101492.56;;;6.94;98.33
62725;BME280;49026;52.600;4.694;2023-12-20T00:40:27;101501.34;;;6.90;97.73
62725;BME280;49026;52.600;4.694;2023-12-20T00:42:52;101502.22;;;6.88;98.76
62725;BME280;49026;52.600;4.694;2023-12-20T00:45:17;101496.16;;;6.87;98.53
62725;BME280;49026;52.600;4.694;2023-12-20T00:47:43;101503.16;;;6.85;98.52
62725;BME280;49026;52.600;4.694;2023-12-20T00:50:11;101496.19;;;6.84;98.96
62725;BME280;49026;52.600;4.694;2023-12-20T00:52:36;101505.75;;;6.85;98.49
62725;BME280;49026;52.600;4.694;2023-12-20T00:55:02;101510.03;;;6.91;98.37
62725;BME280;49026;52.600;4.694;2023-12-20T00:57:29;101506.50;;;6.93;98.34
62725;BME280;49026;52.600;4.694;2023-12-20T00:59:56;101515.16;;;6.98;99.09
62725;BME280;49026;52.600;4.694;2023-12-20T01:02:21;101513.34;;;7.03;98.89
62725;BME280;49026;52.600;4.694;2023-12-20T01:04:49;101510.72;;;7.05;99.26
62725;BME280;49026;52.600;4.694;2023-12-20T01:07:15;101516.75;;;7.09;98.17
62725;BME280;49026;52.600;4.694;2023-12-20T01:09:40;101499.28;;;7.11;98.46
62725;BME280;49026;52.600;4.694;2023-12-20T01:12:05;101507.97;;;7.13;99.02
62725;BME280;49026;52.600;4.694;2023-12-20T01:14:34;101502.72;;;7.13;98.90
62725;BME280;49026;52.600;4.694;2023-12-20T01:16:59;101487.00;;;7.16;98.26
62725;BME280;49026;52.600;4.694;2023-12-20T01:19:24;101506.16;;;7.16;98.36
62725;BME280;49026;52.600;4.694;2023-12-20T01:21:50;101500.94;;;7.15;97.94
62725;BME280;49026;52.600;4.694;2023-12-20T01:24:15;101487.00;;;7.16;97.53
62725;BME280;49026;52.600;4.694;2023-12-20T01:26:43;101479.22;;;7.13;97.40
62725;BME280;49026;52.600;4.694;2023-12-20T01:29:09;101478.38;;;7.11;96.93
62725;BME280;49026;52.600;4.694;2023-12-20T01:31:37;101481.84;;;7.11;97.44
62725;BME280;49026;52.600;4.694;2023-12-20T01:34:02;101493.19;;;7.10;97.44
62725;BME280;49026;52.600;4.694;2023-12-20T01:36:27;101484.44;;;7.13;96.96
62725;BME280;49026;52.600;4.694;2023-12-20T01:38:53;101463.47;;;7.16;97.11
62725;BME280;49026;52.600;4.694;2023-12-20T01:41:18;101494.81;;;7.17;97.35
62725;BME280;49026;52.600;4.694;2023-12-20T01:43:44;101487.78;;;7.21;97.08
62725;BME280;49026;52.600;4.694;2023-12-20T01:46:09;101483.44;;;7.20;97.46
62725;BME280;49026;52.600;4.694;2023-12-20T01:48:38;101467.75;;;7.20;97.73
62725;BME280;49026;52.600;4.694;2023-12-20T01:51:06;101483.44;;;7.20;96.71
62725;BME280;49026;52.600;4.694;2023-12-20T01:53:32;101494.81;;;7.19;97.49
62725;BME280;49026;52.600;4.694;2023-12-20T01:56:02;101493.91;;;7.20;97.71
62725;BME280;49026;52.600;4.694;2023-12-20T01:58:27;101481.69;;;7.22;97.60
62725;BME280;49026;52.600;4.694;2023-12-20T02:00:56;101497.34;;;7.25;96.47
62725;BME280;49026;52.600;4.694;2023-12-20T02:03:22;101499.94;;;7.25;96.56
62725;BME280;49026;52.600;4.694;2023-12-20T02:05:52;101486.91;;;7.22;96.65
62725;BME280;49026;52.600;4.694;2023-12-20T02:08:18;101486.91;;;7.22;96.71
62725;BME280;49026;52.600;4.694;2023-12-20T02:10:43;101477.38;;;7.18;94.64
62725;BME280;49026;52.600;4.694;2023-12-20T02:13:09;101466.09;;;7.16;94.78
62725;BME280;49026;52.600;4.694;2023-12-20T02:15:34;101474.94;;;7.09;94.86
62725;BME280;49026;52.600;4.694;2023-12-20T02:18:01;101479.38;;;7.03;95.09
62725;BME280;49026;52.600;4.694;2023-12-20T02:20:27;101472.41;;;7.02;95.67
62725;BME280;49026;52.600;4.694;2023-12-20T02:22:52;101460.16;;;7.04;95.29
62725;BME280;49026;52.600;4.694;2023-12-20T02:25:19;101466.22;;;7.07;94.67
62725;BME280;49026;52.600;4.694;2023-12-20T02:27:45;101460.06;;;7.12;94.01
62725;BME280;49026;52.600;4.694;2023-12-20T02:30:10;101451.28;;;7.15;94.86
62725;BME280;49026;52.600;4.694;2023-12-20T02:32:36;101459.09;;;7.18;95.39
62725;BME280;49026;52.600;4.694;2023-12-20T02:35:01;101436.34;;;7.23;94.79
62725;BME280;49026;52.600;4.694;2023-12-20T02:37:27;101457.25;;;7.23;94.81
62725;BME280;49026;52.600;4.694;2023-12-20T02:39:52;101455.56;;;7.20;95.36
62725;BME280;49026;52.600;4.694;2023-12-20T02:42:17;101446.84;;;7.20;94.68
62725;BME280;49026;52.600;4.694;2023-12-20T02:44:43;101439.97;;;7.16;95.26
62725;BME280;49026;52.600;4.694;2023-12-20T02:47:08;101437.38;;;7.13;94.81
62725;BME280;49026;52.600;4.694;2023-12-20T02:49:33;101434.00;;;7.06;95.32
62725;BME280;49026;52.600;4.694;2023-12-20T02:51:58;101419.34;;;6.97;94.83
62725;BME280;49026;52.600;4.694;2023-12-20T02:54:23;101424.66;;;6.91;94.49
62725;BME280;49026;52.600;4.694;2023-12-20T02:56:49;101410.78;;;6.88;94.73
62725;BME280;49026;52.600;4.694;2023-12-20T02:59:14;101401.34;;;6.80;93.94
62725;BME280;49026;52.600;4.694;2023-12-20T03:01:42;101423.94;;;6.81;94.05
62725;BME280;49026;52.600;4.694;2023-12-20T03:04:08;101434.38;;;6.83;93.59
62725;BME280;49026;52.600;4.694;2023-12-20T03:06:33;101424.72;;;6.86;93.56
62725;BME280;49026;52.600;4.694;2023-12-20T03:08:58;101439.47;;;6.92;94.45
62725;BME280;49026;52.600;4.694;2023-12-20T03:11:27;101429.84;;;6.94;94.16
62725;BME280;49026;52.600;4.694;2023-12-20T03:13:52;101392.34;;;6.98;94.87
62725;BME280;49026;52.600;4.694;2023-12-20T03:16:20;101434.94;;;7.03;94.76
62725;BME280;49026;52.600;4.694;2023-12-20T03:18:45;101441.03;;;7.04;94.01
62725;BME280;49026;52.600;4.694;2023-12-20T03:21:11;101448.88;;;7.02;93.85
62725;BME280;49026;52.600;4.694;2023-12-20T03:23:36;101448.91;;;7.01;94.21
62725;BME280;49026;52.600;4.694;2023-12-20T03:26:07;101452.38;;;7.01;94.83
62725;BME280;49026;52.600;4.694;2023-12-20T03:28:36;101448.84;;;7.05;94.77
62725;BME280;49026;52.600;4.694;2023-12-20T03:31:01;101434.81;;;7.10;94.69
62725;BME280;49026;52.600;4.694;2023-12-20T03:33:29;101433.06;;;7.12;94.21
62725;BME280;49026;52.600;4.694;2023-12-20T03:35:57;101452.19;;;7.14;93.96
62725;BME280;49026;52.600;4.694;2023-12-20T03:38:23;101440.84;;;7.15;93.76
62725;BME280;49026;52.600;4.694;2023-12-20T03:40:51;101440.75;;;7.19;93.25
62725;BME280;49026;52.600;4.694;2023-12-20T03:43:16;101427.72;;;7.18;93.27
62725;BME280;49026;52.600;4.694;2023-12-20T03:45:42;101441.69;;;7.17;93.74
62725;BME280;49026;52.600;4.694;2023-12-20T03:48:07;101448.66;;;7.16;93.31
62725;BME280;49026;52.600;4.694;2023-12-20T03:50:34;101443.44;;;7.15;93.36
62725;BME280;49026;52.600;4.694;2023-12-20T03:52:59;101436.50;;;7.14;94.01
62725;BME280;49026;52.600;4.694;2023-12-20T03:55:24;101433.06;;;7.12;93.28
62725;BME280;49026;52.600;4.694;2023-12-20T03:57:52;101426.97;;;7.10;93.87
62725;BME280;49026;52.600;4.694;2023-12-20T04:00:17;101413.03;;;7.11;93.29
62725;BME280;49026;52.600;4.694;2023-12-20T04:02:42;101417.44;;;7.09;93.41
62725;BME280;49026;52.600;4.694;2023-12-20T04:05:09;101414.81;;;7.09;94.34
62725;BME280;49026;52.600;4.694;2023-12-20T04:07:37;101428.69;;;7.12;94.85
62725;BME280;49026;52.600;4.694;2023-12-20T04:10:03;101399.88;;;7.17;95.21
62725;BME280;49026;52.600;4.694;2023-12-20T04:12:32;101399.81;;;7.20;94.83
62725;BME280;49026;52.600;4.694;2023-12-20T04:14:58;101387.47;;;7.27;93.32
62725;BME280;49026;52.600;4.694;2023-12-20T04:17:23;101383.91;;;7.32;92.35
62725;BME280;49026;52.600;4.694;2023-12-20T04:19:51;101380.41;;;7.33;93.09
62725;BME280;49026;52.600;4.694;2023-12-20T04:22:18;101390.00;;;7.33;93.78
62725;BME280;49026;52.600;4.694;2023-12-20T04:24:43;101390.84;;;7.33;93.26
62725;BME280;49026;52.600;4.694;2023-12-20T04:27:08;101389.97;;;7.34;94.38
62725;BME280;49026;52.600;4.694;2023-12-20T04:29:34;101389.94;;;7.36;93.63
62725;BME280;49026;52.600;4.694;2023-12-20T04:31:59;101384.72;;;7.36;93.77
62725;BME280;49026;52.600;4.694;2023-12-20T04:34:25;101396.84;;;7.40;93.51
62725;BME280;49026;52.600;4.694;2023-12-20T04:36:50;101376.84;;;7.37;93.66
62725;BME280;49026;52.600;4.694;2023-12-20T04:39:18;101396.84;;;7.40;93.93
62725;BME280;49026;52.600;4.694;2023-12-20T04:41:43;101388.13;;;7.41;94.04
62725;BME280;49026;52.600;4.694;2023-12-20T04:44:09;101393.34;;;7.41;93.84
62725;BME280;49026;52.600;4.694;2023-12-20T04:46:34;101385.47;;;7.42;94.32
62725;BME280;49026;52.600;4.694;2023-12-20T04:48:59;101379.34;;;7.45;94.16
62725;BME280;49026;52.600;4.694;2023-12-20T04:51:24;101376.63;;;7.50;92.61
62725;BME280;49026;52.600;4.694;2023-12-20T04:53:50;101404.56;;;7.46;93.19
62725;BME280;49026;52.600;4.694;2023-12-20T04:56:15;101381.91;;;7.47;92.91
62725;BME280;49026;52.600;4.694;2023-12-20T04:58:44;101389.75;;;7.47;92.88
62725;BME280;49026;52.600;4.694;2023-12-20T05:01:09;101392.34;;;7.47;92.30
62725;BME280;49026;52.600;4.694;2023-12-20T05:03:35;101405.44;;;7.47;93.02
62725;BME280;49026;52.600;4.694;2023-12-20T05:06:00;101389.72;;;7.48;92.84
62725;BME280;49026;52.600;4.694;2023-12-20T05:08:26;101382.69;;;7.52;91.98
62725;BME280;49026;52.600;4.694;2023-12-20T05:10:54;101394.91;;;7.50;92.25
62725;BME280;49026;52.600;4.694;2023-12-20T05:13:20;101392.34;;;7.47;93.46
62725;BME280;49026;52.600;4.694;2023-12-20T05:15:45;101355.69;;;7.50;92.69
62725;BME280;49026;52.600;4.694;2023-12-20T05:18:10;101382.72;;;7.50;93.91
62725;BME280;49026;52.600;4.694;2023-12-20T05:20:36;101368.72;;;7.53;93.26
62725;BME280;49026;52.600;4.694;2023-12-20T05:23:01;101380.00;;;7.55;93.30
62725;BME280;49026;52.600;4.694;2023-12-20T05:25:26;101376.56;;;7.53;93.26
62725;BME280;49026;52.600;4.694;2023-12-20T05:27:52;101362.56;;;7.57;93.17
62725;BME280;49026;52.600;4.694;2023-12-20T05:30:17;101363.41;;;7.57;93.55
62725;BME280;49026;52.600;4.694;2023-12-20T05:32:44;101372.03;;;7.63;93.11
62725;BME280;49026;52.600;4.694;2023-12-20T05:35:12;101351.91;;;7.66;92.91
62725;BME280;49026;52.600;4.694;2023-12-20T05:37:37;101369.28;;;7.70;92.47
62725;BME280;49026;52.600;4.694;2023-12-20T05:40:03;101360.56;;;7.68;92.64
62725;BME280;49026;52.600;4.694;2023-12-20T05:42:29;101377.13;;;7.70;93.07
62725;BME280;49026;52.600;4.694;2023-12-20T05:44:54;101370.97;;;7.71;93.41
62725;BME280;49026;52.600;4.694;2023-12-20T05:47:20;101363.94;;;7.73;93.98
62725;BME280;49026;52.600;4.694;2023-12-20T05:49:45;101358.63;;;7.78;93.43
62725;BME280;49026;52.600;4.694;2023-12-20T05:52:10;101355.09;;;7.81;92.29
62725;BME280;49026;52.600;4.694;2023-12-20T05:54:38;101365.56;;;7.81;91.60
62725;BME280;49026;52.600;4.694;2023-12-20T05:57:04;101363.84;;;7.79;92.11
62725;BME280;49026;52.600;4.694;2023-12-20T05:59:29;101352.56;;;7.76;92.79
62725;BME280;49026;52.600;4.694;2023-12-20T06:01:54;101330.78;;;7.75;92.20
62725;BME280;49026;52.600;4.694;2023-12-20T06:04:22;101345.75;;;7.69;91.78
62725;BME280;49026;52.600;4.694;2023-12-20T06:06:47;101346.72;;;7.63;92.07
62725;BME280;49026;52.600;4.694;2023-12-20T06:09:12;101337.19;;;7.60;92.21
62725;BME280;49026;52.600;4.694;2023-12-20T06:11:40;101357.22;;;7.60;92.53
62725;BME280;49026;52.600;4.694;2023-12-20T06:14:08;101341.59;;;7.58;92.49
62725;BME280;49026;52.600;4.694;2023-12-20T06:16:35;101352.09;;;7.57;93.02
62725;BME280;49026;52.600;4.694;2023-12-20T06:19:04;101350.31;;;7.59;93.29
62725;BME280;49026;52.600;4.694;2023-12-20T06:21:29;101340.72;;;7.58;92.92
62725;BME280;49026;52.600;4.694;2023-12-20T06:24:00;101335.38;;;7.64;92.79
62725;BME280;49026;52.600;4.694;2023-12-20T06:26:25;101334.34;;;7.71;92.90
62725;BME280;49026;52.600;4.694;2023-12-20T06:28:50;101342.13;;;7.74;92.85
62725;BME280;49026;52.600;4.694;2023-12-20T06:31:18;101352.53;;;7.77;92.53
62725;BME280;49026;52.600;4.694;2023-12-20T06:33:43;101348.16;;;7.78;91.71
62725;BME280;49026;52.600;4.694;2023-12-20T06:36:12;101353.44;;;7.76;92.20
62725;BME280;49026;52.600;4.694;2023-12-20T06:38:40;101350.88;;;7.73;92.04
62725;BME280;49026;52.600;4.694;2023-12-20T06:41:07;101340.53;;;7.69;92.09
62725;BME280;49026;52.600;4.694;2023-12-20T06:43:32;101351.09;;;7.63;91.91
62725;BME280;49026;52.600;4.694;2023-12-20T06:46:00;101332.88;;;7.58;92.08
62725;BME280;49026;52.600;4.694;2023-12-20T06:48:25;101325.97;;;7.55;91.90
62725;BME280;49026;52.600;4.694;2023-12-20T06:50:51;101352.13;;;7.55;91.64
62725;BME280;49026;52.600;4.694;2023-12-20T06:53:16;101341.75;;;7.51;91.82
62725;BME280;49026;52.600;4.694;2023-12-20T06:55:41;101333.88;;;7.52;91.89
62725;BME280;49026;52.600;4.694;2023-12-20T06:58:07;101336.50;;;7.51;92.02
62725;BME280;49026;52.600;4.694;2023-12-20T07:00:34;101317.44;;;7.46;92.62
62725;BME280;49026;52.600;4.694;2023-12-20T07:03:02;101330.47;;;7.47;92.08
62725;BME280;49026;52.600;4.694;2023-12-20T07:05:30;101338.28;;;7.50;91.91
62725;BME280;49026;52.600;4.694;2023-12-20T07:07:55;101326.00;;;7.54;91.98
62725;BME280;49026;52.600;4.694;2023-12-20T07:10:20;101332.94;;;7.55;91.89
62725;BME280;49026;52.600;4.694;2023-12-20T07:12:48;101315.47;;;7.57;91.66
62725;BME280;49026;52.600;4.694;2023-12-20T07:15:14;101323.19;;;7.61;91.95
62725;BME280;49026;52.600;4.694;2023-12-20T07:17:39;101317.06;;;7.64;92.33
62725;BME280;49026;52.600;4.694;2023-12-20T07:20:05;101336.06;;;7.74;92.58
62725;BME280;49026;52.600;4.694;2023-12-20T07:22:31;101328.94;;;7.81;92.31
62725;BME280;49026;52.600;4.694;2023-12-20T07:24:58;101327.91;;;7.88;91.97
62725;BME280;49026;52.600;4.694;2023-12-20T07:27:23;101338.28;;;7.92;91.62
62725;BME280;49026;52.600;4.694;2023-12-20T07:29:48;101346.03;;;7.97;91.34
62725;BME280;49026;52.600;4.694;2023-12-20T07:32:16;101340.72;;;8.00;91.05
62725;BME280;49026;52.600;4.694;2023-12-20T07:34:44;101352.94;;;8.01;91.41
62725;BME280;49026;52.600;4.694;2023-12-20T07:37:09;101338.97;;;8.02;91.34
62725;BME280;49026;52.600;4.694;2023-12-20T07:39:41;101359.00;;;8.02;91.38
62725;BME280;49026;52.600;4.694;2023-12-20T07:42:07;101352.94;;;8.01;91.70
62725;BME280;49026;52.600;4.694;2023-12-20T07:44:32;101368.56;;;8.04;91.69
62725;BME280;49026;52.600;4.694;2023-12-20T07:46:58;101365.88;;;8.07;91.67
62725;BME280;49026;52.600;4.694;2023-12-20T07:49:23;101360.59;;;8.10;91.04
62725;BME280;49026;52.600;4.694;2023-12-20T07:51:49;101350.13;;;8.10;91.09
62725;BME280;49026;52.600;4.694;2023-12-20T07:54:15;101370.16;;;8.11;91.51
62725;BME280;49026;52.600;4.694;2023-12-20T07:56:40;101362.28;;;8.11;91.66
62725;BME280;49026;52.600;4.694;2023-12-20T07:59:08;101356.19;;;8.12;91.02
62725;BME280;49026;52.600;4.694;2023-12-20T08:01:34;101357.06;;;8.11;91.11
62725;BME280;49026;52.600;4.694;2023-12-20T08:03:59;101358.75;;;8.15;90.40
62725;BME280;49026;52.600;4.694;2023-12-20T08:06:24;101369.25;;;8.14;89.85
62725;BME280;49026;52.600;4.694;2023-12-20T08:08:50;101373.56;;;8.15;90.73
62725;BME280;49026;52.600;4.694;2023-12-20T08:11:15;101362.19;;;8.18;90.90
62725;BME280;49026;52.600;4.694;2023-12-20T08:13:43;101363.06;;;8.16;90.92
62725;BME280;49026;52.600;4.694;2023-12-20T08:16:08;101368.22;;;8.20;90.72
62725;BME280;49026;52.600;4.694;2023-12-20T08:18:34;101345.59;;;8.19;90.63
62725;BME280;49026;52.600;4.694;2023-12-20T08:21:00;101356.94;;;8.18;90.79
62725;BME280;49026;52.600;4.694;2023-12-20T08:23:26;101360.44;;;8.16;91.17
62725;BME280;49026;52.600;4.694;2023-12-20T08:25:51;101366.56;;;8.17;91.14
62725;BME280;49026;52.600;4.694;2023-12-20T08:28:19;101378.81;;;8.13;91.01
62725;BME280;49026;52.600;4.694;2023-12-20T08:30:44;101351.81;;;8.11;90.72
62725;BME280;49026;52.600;4.694;2023-12-20T08:33:12;101364.97;;;8.08;91.27
62725;BME280;49026;52.600;4.694;2023-12-20T08:35:39;101367.75;;;8.02;91.22
62725;BME280;49026;52.600;4.694;2023-12-20T08:38:05;101360.88;;;7.96;90.59
62725;BME280;49026;52.600;4.694;2023-12-20T08:40:33;101358.41;;;7.90;91.06
62725;BME280;49026;52.600;4.694;2023-12-20T08:43:01;101364.50;;;7.89;90.93
62725;BME280;49026;52.600;4.694;2023-12-20T08:45:26;101362.69;;;7.93;90.73
62725;BME280;49026;52.600;4.694;2023-12-20T08:47:51;101376.22;;;8.13;91.07
62725;BME280;49026;52.600;4.694;2023-12-20T08:50:16;101386.22;;;8.35;90.00
62725;BME280;49026;52.600;4.694;2023-12-20T08:52:44;101364.66;;;8.64;90.08
62725;BME280;49026;52.600;4.694;2023-12-20T08:55:11;101350.19;;;8.85;88.70
62725;BME280;49026;52.600;4.694;2023-12-20T08:57:37;101353.25;;;9.01;88.94
62725;BME280;49026;52.600;4.694;2023-12-20T09:00:03;101360.75;;;9.15;88.66
62725;BME280;49026;52.600;4.694;2023-12-20T09:02:32;101350.78;;;9.30;87.89
62725;BME280;49026;52.600;4.694;2023-12-20T09:05:01;101342.91;;;9.30;88.58
62725;BME280;49026;52.600;4.694;2023-12-20T09:07:27;101343.00;;;9.26;88.03
62725;BME280;49026;52.600;4.694;2023-12-20T09:09:55;101328.63;;;9.40;88.13
62725;BME280;49026;52.600;4.694;2023-12-20T09:12:21;101358.69;;;9.28;87.84
62725;BME280;49026;52.600;4.694;2023-12-20T09:14:47;101369.13;;;9.30;88.10
62725;BME280;49026;52.600;4.694;2023-12-20T09:17:13;101361.53;;;9.52;86.89
62725;BME280;49026;52.600;4.694;2023-12-20T09:19:41;101364.53;;;9.71;87.09
62725;BME280;49026;52.600;4.694;2023-12-20T09:22:06;101355.81;;;9.69;85.79
62725;BME280;49026;52.600;4.694;2023-12-20T09:24:31;101374.00;;;9.76;86.76
62725;BME280;49026;52.600;4.694;2023-12-20T09:26:57;101361.09;;;9.98;85.60
62725;BME280;49026;52.600;4.694;2023-12-20T09:29:25;101350.41;;;9.75;84.75
62725;BME280;49026;52.600;4.694;2023-12-20T09:31:50;101367.81;;;9.79;86.58
62725;BME280;49026;52.600;4.694;2023-12-20T09:34:16;101372.50;;;9.68;86.39
62725;BME280;49026;52.600;4.694;2023-12-20T09:36:42;101370.78;;;9.65;86.18
62725;BME280;49026;52.600;4.694;2023-12-20T09:39:20;101372.81;;;9.55;85.50
62725;BME280;49026;52.600;4.694;2023-12-20T09:42:08;101368.06;;;9.37;86.13
62725;BME280;49026;52.600;4.694;2023-12-20T09:44:37;101386.59;;;9.31;87.18
62725;BME280;49026;52.600;4.694;2023-12-20T09:47:06;101381.34;;;9.31;87.71
62725;BME280;49026;52.600;4.694;2023-12-20T09:49:32;101375.56;;;9.18;86.78
62725;BME280;49026;52.600;4.694;2023-12-20T09:52:00;101374.94;;;9.08;86.56
62725;BME280;49026;52.600;4.694;2023-12-20T09:54:26;101385.97;;;9.21;87.01
62725;BME280;49026;52.600;4.694;2023-12-20T09:56:53;101378.94;;;9.23;86.27
62725;BME280;49026;52.600;4.694;2023-12-20T09:59:18;101371.56;;;9.37;85.63
62725;BME280;49026;52.600;4.694;2023-12-20T10:01:44;101390.88;;;9.33;85.44
62725;BME280;49026;52.600;4.694;2023-12-20T10:04:12;101380.88;;;9.15;85.72
62725;BME280;49026;52.600;4.694;2023-12-20T10:06:44;101376.94;;;8.97;86.80
62725;BME280;49026;52.600;4.694;2023-12-20T10:09:10;101380.66;;;8.88;87.41
62725;BME280;49026;52.600;4.694;2023-12-20T10:11:36;101394.56;;;8.92;87.31
62725;BME280;49026;52.600;4.694;2023-12-20T10:14:05;101391.19;;;8.86;87.99
62725;BME280;49026;52.600;4.694;2023-12-20T10:16:34;101399.97;;;8.85;88.07
62725;BME280;49026;52.600;4.694;2023-12-20T10:19:00;101386.09;;;8.80;87.70
62725;BME280;49026;52.600;4.694;2023-12-20T10:21:31;101382.63;;;8.80;87.02
62725;BME280;49026;52.600;4.694;2023-12-20T10:26:27;101381.94;;;9.07;87.43
62725;BME280;49026;52.600;4.694;2023-12-20T10:28:56;101377.63;;;9.72;86.38
62725;BME280;49026;52.600;4.694;2023-12-20T10:31:35;101369.81;;;10.29;83.84
62725;BME280;49026;52.600;4.694;2023-12-20T10:34:01;101361.84;;;10.62;82.07
62725;BME280;49026;52.600;4.694;2023-12-20T10:36:30;101364.25;;;10.96;82.40
62725;BME280;49026;52.600;4.694;2023-12-20T10:38:56;101359.66;;;11.28;82.41
62725;BME280;49026;52.600;4.694;2023-12-20T10:41:29;101349.69;;;11.61;81.04
62725;BME280;49026;52.600;4.694;2023-12-20T10:43:56;101344.38;;;11.86;81.35
62725;BME280;49026;52.600;4.694;2023-12-20T10:46:23;101354.31;;;11.55;81.24
62725;BME280;49026;52.600;4.694;2023-12-20T10:48:53;101297.06;;;10.86;81.11
62725;BME280;49026;52.600;4.694;2023-12-20T10:51:20;101325.47;;;10.19;81.89
62725;BME280;49026;52.600;4.694;2023-12-20T10:53:49;101365.22;;;9.77;83.84
62725;BME280;49026;52.600;4.694;2023-12-20T10:56:17;101359.84;;;9.51;83.57
62725;BME280;49026;52.600;4.694;2023-12-20T10:58:49;101367.50;;;9.25;85.23
62725;BME280;49026;52.600;4.694;2023-12-20T11:01:16;101360.78;;;9.14;85.90
62725;BME280;49026;52.600;4.694;2023-12-20T11:03:53;101353.91;;;9.09;86.59
62725;BME280;49026;52.600;4.694;2023-12-20T11:06:46;101349.53;;;9.10;87.02
62725;BME280;49026;52.600;4.694;2023-12-20T11:14:29;101331.25;;;9.07;86.75
62725;BME280;49026;52.600;4.694;2023-12-20T11:17:12;101335.72;;;9.03;86.56
62725;BME280;49026;52.600;4.694;2023-12-20T11:22:37;101329.66;;;9.01;87.31
62725;BME280;49026;52.600;4.694;2023-12-20T11:25:09;101324.44;;;9.00;87.75
62725;BME280;49026;52.600;4.694;2023-12-20T11:27:43;101328.03;;;8.97;87.46
62725;BME280;49026;52.600;4.694;2023-12-20T11:30:10;101315.00;;;8.94;88.39
62725;BME280;49026;52.600;4.694;2023-12-20T11:32:36;101325.53;;;8.93;88.08
62725;BME280;49026;52.600;4.694;2023-12-20T11:37:40;101315.06;;;8.91;87.96
62725;BME280;49026;52.600;4.694;2023-12-20T11:40:15;101301.94;;;8.93;87.85
62725;BME280;49026;52.600;4.694;2023-12-20T11:42:42;101304.53;;;8.94;87.70
62725;BME280;49026;52.600;4.694;2023-12-20T11:45:14;101303.69;;;8.92;87.97
62725;BME280;49026;52.600;4.694;2023-12-20T11:47:42;101299.31;;;8.93;87.87
62725;BME280;49026;52.600;4.694;2023-12-20T11:50:08;101292.19;;;8.98;86.81
62725;BME280;49026;52.600;4.694;2023-12-20T11:52:35;101301.78;;;8.99;86.55
62725;BME280;49026;52.600;4.694;2023-12-20T11:55:01;101299.91;;;9.04;87.03
62725;BME280;49026;52.600;4.694;2023-12-20T11:57:30;101304.97;;;9.10;86.72
62725;BME280;49026;52.600;4.694;2023-12-20T11:59:55;101300.50;;;9.14;86.37
62725;BME280;49026;52.600;4.694;2023-12-20T12:02:23;101291.47;;;9.25;87.18
62725;BME280;49026;52.600;4.694;2023-12-20T12:04:49;101288.56;;;9.35;86.42
62725;BME280;49026;52.600;4.694;2023-12-20T12:07:16;101288.72;;;9.28;86.09
62725;BME280;49026;52.600;4.694;2023-12-20T12:09:41;101274.97;;;9.20;85.90
62725;BME280;49026;52.600;4.694;2023-12-20T12:12:06;101273.41;;;9.13;85.56
62725;BME280;49026;52.600;4.694;2023-12-20T12:14:35;101270.09;;;9.06;86.27
62725;BME280;49026;52.600;4.694;2023-12-20T12:17:04;101268.53;;;9.01;86.54
62725;BME280;49026;52.600;4.694;2023-12-20T12:19:30;101258.19;;;8.95;86.57
62725;BME280;49026;52.600;4.694;2023-12-20T12:22:08;101260.06;;;8.89;86.97
62725;BME280;49026;52.600;4.694;2023-12-20T12:24:41;101263.69;;;8.85;87.43
62725;BME280;49026;52.600;4.694;2023-12-20T12:27:09;101269.00;;;8.82;87.18
62725;BME280;49026;52.600;4.694;2023-12-20T12:29:39;101269.97;;;8.78;87.26
62725;BME280;49026;52.600;4.694;2023-12-20T12:32:11;101260.41;;;8.77;87.63
62725;BME280;49026;52.600;4.694;2023-12-20T12:34:36;101265.72;;;8.74;87.62
62725;BME280;49026;52.600;4.694;2023-12-20T12:37:11;101267.47;;;8.74;87.70
62725;BME280;49026;52.600;4.694;2023-12-20T12:39:37;101266.59;;;8.73;87.65
62725;BME280;49026;52.600;4.694;2023-12-20T12:42:03;101268.41;;;8.71;87.94
62725;BME280;49026;52.600;4.694;2023-12-20T12:44:28;101269.31;;;8.70;88.04
62725;BME280;49026;52.600;4.694;2023-12-20T12:46:54;101276.28;;;8.71;87.11
62725;BME280;49026;52.600;4.694;2023-12-20T12:49:22;101267.69;;;8.66;87.18
62725;BME280;49026;52.600;4.694;2023-12-20T12:51:48;101253.75;;;8.64;87.25
62725;BME280;49026;52.600;4.694;2023-12-20T12:54:13;101254.56;;;8.66;86.64
62725;BME280;49026;52.600;4.694;2023-12-20T12:56:40;101245.03;;;8.63;87.26
62725;BME280;49026;52.600;4.694;2023-12-20T12:59:06;101239.81;;;8.62;87.81
62725;BME280;49026;52.600;4.694;2023-12-20T13:01:33;101236.38;;;8.60;87.66
62725;BME280;49026;52.600;4.694;2023-12-20T13:03:59;101255.50;;;8.63;87.61
62725;BME280;49026;52.600;4.694;2023-12-20T13:06:26;101244.09;;;8.66;87.10
62725;BME280;49026;52.600;4.694;2023-12-20T13:08:52;101224.09;;;8.62;87.89
62725;BME280;49026;52.600;4.694;2023-12-20T13:11:17;101205.81;;;8.60;87.72